<?xml version="1.0" encoding="UTF-8" standalone="no" ?>
<gpx xmlns="http://www.topografix.com/GPX/1/1" xmlns:xsi="http://www.w3.org/2001/XMLSchema-instance" xsi:schemaLocation="http://www.topografix.com/GPX/1/1 http://www.topografix.com/GPX/1/1/gpx.xsd" version="1.1" creator="VisuGPX - https://www.visugpx.com">
  <metadata>
    <name>grand8CM</name>
    <desc><![CDATA[essai]]></desc>
  </metadata>
  <trk>
    <name><![CDATA[grandhuitcm-19889215]]></name>
    <trkseg>
      <trkpt lat="44.14315" lon="1.42115">
        <ele>206</ele>
        <time>2024-09-12T18:45:01Z</time>
      </trkpt>
      <trkpt lat="44.14311" lon="1.42439">
        <ele>193</ele>
        <time>2024-09-12T18:48:07Z</time>
      </trkpt>
      <trkpt lat="44.14167" lon="1.42645">
        <ele>182</ele>
        <time>2024-09-12T18:50:52Z</time>
      </trkpt>
      <trkpt lat="44.13981" lon="1.42911">
        <ele>186</ele>
        <time>2024-09-12T18:54:26Z</time>
      </trkpt>
      <trkpt lat="44.13832" lon="1.42888">
        <ele>149</ele>
        <time>2024-09-12T18:56:26Z</time>
      </trkpt>
      <trkpt lat="44.13772" lon="1.42566">
        <ele>127</ele>
        <time>2024-09-12T18:59:37Z</time>
      </trkpt>
      <trkpt lat="44.13545" lon="1.42562">
        <ele>117</ele>
        <time>2024-09-12T19:02:39Z</time>
      </trkpt>
      <trkpt lat="44.1351" lon="1.42615">
        <ele>116</ele>
        <time>2024-09-12T19:03:20Z</time>
      </trkpt>
      <trkpt lat="44.13407" lon="1.42682">
        <ele>113</ele>
        <time>2024-09-12T19:04:51Z</time>
      </trkpt>
      <trkpt lat="44.13388" lon="1.42748">
        <ele>115</ele>
        <time>2024-09-12T19:05:32Z</time>
      </trkpt>
      <trkpt lat="44.13385" lon="1.42928">
        <ele>112</ele>
        <time>2024-09-12T19:07:16Z</time>
      </trkpt>
      <trkpt lat="44.13496" lon="1.43096">
        <ele>120</ele>
        <time>2024-09-12T19:09:27Z</time>
      </trkpt>
      <trkpt lat="44.13611" lon="1.43227">
        <ele>149</ele>
        <time>2024-09-12T19:11:26Z</time>
      </trkpt>
      <trkpt lat="44.13718" lon="1.43422">
        <ele>183</ele>
        <time>2024-09-12T19:13:47Z</time>
      </trkpt>
      <trkpt lat="44.1377" lon="1.43469">
        <ele>188</ele>
        <time>2024-09-12T19:14:36Z</time>
      </trkpt>
      <trkpt lat="44.13864" lon="1.43411">
        <ele>196</ele>
        <time>2024-09-12T19:15:59Z</time>
      </trkpt>
      <trkpt lat="44.13958" lon="1.43268">
        <ele>201</ele>
        <time>2024-09-12T19:17:50Z</time>
      </trkpt>
      <trkpt lat="44.14029" lon="1.43147">
        <ele>202</ele>
        <time>2024-09-12T19:19:20Z</time>
      </trkpt>
      <trkpt lat="44.14113" lon="1.43201">
        <ele>195</ele>
        <time>2024-09-12T19:20:34Z</time>
      </trkpt>
      <trkpt lat="44.14349" lon="1.43212">
        <ele>188</ele>
        <time>2024-09-12T19:23:43Z</time>
      </trkpt>
      <trkpt lat="44.14437" lon="1.43225">
        <ele>182</ele>
        <time>2024-09-12T19:24:54Z</time>
      </trkpt>
      <trkpt lat="44.14441" lon="1.43334">
        <ele>176</ele>
        <time>2024-09-12T19:25:57Z</time>
      </trkpt>
      <trkpt lat="44.14608" lon="1.43377">
        <ele>165</ele>
        <time>2024-09-12T19:28:13Z</time>
      </trkpt>
      <trkpt lat="44.14828" lon="1.4328">
        <ele>139</ele>
        <time>2024-09-12T19:31:17Z</time>
      </trkpt>
      <trkpt lat="44.14826" lon="1.43486">
        <ele>138</ele>
        <time>2024-09-12T19:33:16Z</time>
      </trkpt>
      <trkpt lat="44.14857" lon="1.43703">
        <ele>130</ele>
        <time>2024-09-12T19:35:23Z</time>
      </trkpt>
      <trkpt lat="44.14974" lon="1.43853">
        <ele>127</ele>
        <time>2024-09-12T19:37:30Z</time>
      </trkpt>
      <trkpt lat="44.1505" lon="1.43995">
        <ele>130</ele>
        <time>2024-09-12T19:39:12Z</time>
      </trkpt>
      <trkpt lat="44.15084" lon="1.44235">
        <ele>126</ele>
        <time>2024-09-12T19:41:32Z</time>
      </trkpt>
      <trkpt lat="44.14991" lon="1.44302">
        <ele>125</ele>
        <time>2024-09-12T19:42:56Z</time>
      </trkpt>
      <trkpt lat="44.14917" lon="1.44523">
        <ele>133</ele>
        <time>2024-09-12T19:45:16Z</time>
      </trkpt>
      <trkpt lat="44.14729" lon="1.44439">
        <ele>146</ele>
        <time>2024-09-12T19:47:54Z</time>
      </trkpt>
      <trkpt lat="44.1458" lon="1.4451">
        <ele>150</ele>
        <time>2024-09-12T19:50:01Z</time>
      </trkpt>
      <trkpt lat="44.14495" lon="1.4454">
        <ele>149</ele>
        <time>2024-09-12T19:51:11Z</time>
      </trkpt>
      <trkpt lat="44.14428" lon="1.44587">
        <ele>149</ele>
        <time>2024-09-12T19:52:11Z</time>
      </trkpt>
      <trkpt lat="44.14281" lon="1.44881">
        <ele>159</ele>
        <time>2024-09-12T19:55:37Z</time>
      </trkpt>
      <trkpt lat="44.14267" lon="1.44965">
        <ele>156</ele>
        <time>2024-09-12T19:56:26Z</time>
      </trkpt>
      <trkpt lat="44.14254" lon="1.45081">
        <ele>150</ele>
        <time>2024-09-12T19:57:34Z</time>
      </trkpt>
      <trkpt lat="44.14204" lon="1.45057">
        <ele>145</ele>
        <time>2024-09-12T19:58:16Z</time>
      </trkpt>
      <trkpt lat="44.14118" lon="1.44933">
        <ele>142</ele>
        <time>2024-09-12T19:59:55Z</time>
      </trkpt>
      <trkpt lat="44.14075" lon="1.44969">
        <ele>138</ele>
        <time>2024-09-12T20:00:35Z</time>
      </trkpt>
      <trkpt lat="44.1404" lon="1.45087">
        <ele>141</ele>
        <time>2024-09-12T20:01:49Z</time>
      </trkpt>
      <trkpt lat="44.13949" lon="1.45197">
        <ele>150</ele>
        <time>2024-09-12T20:03:25Z</time>
      </trkpt>
      <trkpt lat="44.13744" lon="1.45231">
        <ele>168</ele>
        <time>2024-09-12T20:06:10Z</time>
      </trkpt>
      <trkpt lat="44.13567" lon="1.44469">
        <ele>194</ele>
        <time>2024-09-12T20:13:51Z</time>
      </trkpt>
      <trkpt lat="44.13735" lon="1.44098">
        <ele>188</ele>
        <time>2024-09-12T20:18:03Z</time>
      </trkpt>
      <trkpt lat="44.13935" lon="1.44147">
        <ele>181</ele>
        <time>2024-09-12T20:20:45Z</time>
      </trkpt>
      <trkpt lat="44.13998" lon="1.44152">
        <ele>174</ele>
        <time>2024-09-12T20:21:36Z</time>
      </trkpt>
      <trkpt lat="44.1405" lon="1.44381">
        <ele>160</ele>
        <time>2024-09-12T20:23:54Z</time>
      </trkpt>
      <trkpt lat="44.14206" lon="1.44701">
        <ele>159</ele>
        <time>2024-09-12T20:27:36Z</time>
      </trkpt>
      <trkpt lat="44.14252" lon="1.44941">
        <ele>157</ele>
        <time>2024-09-12T20:29:59Z</time>
      </trkpt>
      <trkpt lat="44.14417" lon="1.44621">
        <ele>149</ele>
        <time>2024-09-12T20:33:45Z</time>
      </trkpt>
      <trkpt lat="44.14639" lon="1.44454">
        <ele>150</ele>
        <time>2024-09-12T20:37:07Z</time>
      </trkpt>
      <trkpt lat="44.14754" lon="1.44467">
        <ele>143</ele>
        <time>2024-09-12T20:38:40Z</time>
      </trkpt>
      <trkpt lat="44.14891" lon="1.44536">
        <ele>134</ele>
        <time>2024-09-12T20:40:36Z</time>
      </trkpt>
      <trkpt lat="44.14991" lon="1.44334">
        <ele>125</ele>
        <time>2024-09-12T20:42:57Z</time>
      </trkpt>
      <trkpt lat="44.15084" lon="1.44199">
        <ele>127</ele>
        <time>2024-09-12T20:44:45Z</time>
      </trkpt>
      <trkpt lat="44.15053" lon="1.43969">
        <ele>130</ele>
        <time>2024-09-12T20:46:59Z</time>
      </trkpt>
      <trkpt lat="44.14882" lon="1.43716">
        <ele>130</ele>
        <time>2024-09-12T20:50:19Z</time>
      </trkpt>
      <trkpt lat="44.14805" lon="1.43484">
        <ele>143</ele>
        <time>2024-09-12T20:52:46Z</time>
      </trkpt>
      <trkpt lat="44.14823" lon="1.43261">
        <ele>139</ele>
        <time>2024-09-12T20:54:55Z</time>
      </trkpt>
      <trkpt lat="44.14791" lon="1.43109">
        <ele>146</ele>
        <time>2024-09-12T20:56:26Z</time>
      </trkpt>
      <trkpt lat="44.14642" lon="1.42911">
        <ele>149</ele>
        <time>2024-09-12T20:59:11Z</time>
      </trkpt>
      <trkpt lat="44.14488" lon="1.42778">
        <ele>155</ele>
        <time>2024-09-12T21:01:36Z</time>
      </trkpt>
      <trkpt lat="44.14492" lon="1.42611">
        <ele>162</ele>
        <time>2024-09-12T21:03:12Z</time>
      </trkpt>
      <trkpt lat="44.14486" lon="1.42559">
        <ele>165</ele>
        <time>2024-09-12T21:03:42Z</time>
      </trkpt>
      <trkpt lat="44.14469" lon="1.4236">
        <ele>177</ele>
        <time>2024-09-12T21:05:37Z</time>
      </trkpt>
      <trkpt lat="44.14428" lon="1.4224">
        <ele>184</ele>
        <time>2024-09-12T21:06:53Z</time>
      </trkpt>
      <trkpt lat="44.14314" lon="1.42085">
        <ele>207</ele>
        <time>2024-09-12T21:09:01Z</time>
      </trkpt>
    </trkseg>
  </trk>
</gpx>